Time;durP1;ratioP1;P1;durP2;ratioP2;P2;SDS_P1;SDS_P2;PMS_P1;PMS_P2;Temp;Humidity;BMP_temperature;BMP_pressure;BME280_temperature;BME280_humidity;BME280_pressure;Samples;Min_cycle;Max_cycle;Signal;HPM_P1;HPM_P2
2023/04/30 00:00:19;;;;;;;46.97;25.00;;;11.70;99.90;;;;;;5026113;28;20186;-73
2023/04/30 00:02:45;;;;;;;44.03;24.77;;;;;;;;;;5021634;28;20185;-73
2023/04/30 00:05:11;;;;;;;46.20;26.10;;;11.70;99.90;;;;;;5026429;28;20174;-74
2023/04/30 00:07:40;;;;;;;44.10;25.13;;;11.60;99.90;;;;;;5021262;28;20803;-74
2023/04/30 00:10:08;;;;;;;42.97;23.80;;;11.60;99.90;;;;;;5026352;28;20263;-73
2023/04/30 00:12:33;;;;;;;42.93;25.40;;;11.60;99.90;;;;;;5021933;28;20200;-73
2023/04/30 00:15:00;;;;;;;44.07;24.57;;;11.60;99.90;;;;;;5026504;28;20355;-74
2023/04/30 00:17:25;;;;;;;40.80;23.73;;;11.60;99.90;;;;;;5016073;28;20679;-73
2023/04/30 00:19:51;;;;;;;42.47;23.83;;;11.60;99.90;;;;;;5026232;28;20182;-73
2023/04/30 00:22:17;;;;;;;41.30;22.97;;;11.60;99.90;;;;;;5023476;28;20186;-72
2023/04/30 00:24:42;;;;;;;40.53;24.33;;;11.50;99.90;;;;;;5024767;28;20186;-73
2023/04/30 00:27:08;;;;;;;41.53;22.90;;;11.50;99.90;;;;;;5006414;28;20178;-72
2023/04/30 00:29:33;;;;;;;40.77;23.43;;;11.40;99.90;;;;;;5023157;28;20269;-73
2023/04/30 00:31:59;;;;;;;40.47;22.07;;;11.40;99.90;;;;;;5025301;28;20182;-73
2023/04/30 00:34:25;;;;;;;40.07;22.40;;;11.40;99.90;;;;;;5022221;28;20246;-73
2023/04/30 00:36:50;;;;;;;41.33;23.97;;;11.40;99.90;;;;;;5026298;28;20180;-73
2023/04/30 00:39:16;;;;;;;47.07;23.73;;;11.40;99.90;;;;;;5021347;28;20200;-73
2023/04/30 00:41:42;;;;;;;40.80;22.30;;;11.40;99.90;;;;;;5025364;28;20257;-72
2023/04/30 00:44:07;;;;;;;40.03;21.63;;;11.30;99.90;;;;;;5021664;28;20261;-72
2023/04/30 00:46:33;;;;;;;37.83;21.00;;;11.30;99.90;;;;;;5024421;28;20295;-73
2023/04/30 00:49:03;;;;;;;31.47;19.90;;;11.20;99.90;;;;;;5023332;28;20182;-72
2023/04/30 00:51:32;;;;;;;39.40;22.33;;;11.20;99.90;;;;;;5023703;28;20661;-69
2023/04/30 00:54:01;;;;;;;36.27;21.77;;;11.10;99.90;;;;;;5023413;28;20217;-69
2023/04/30 00:56:29;;;;;;;37.17;21.53;;;11.10;99.90;;;;;;5024001;28;20189;-69
2023/04/30 00:58:56;;;;;;;34.90;21.10;;;10.20;99.90;;;;;;5024035;28;20189;-69
2023/04/30 01:01:24;;;;;;;34.87;20.33;;;11.00;99.90;;;;;;5025733;28;20186;-70
2023/04/30 01:03:49;;;;;;;33.50;20.07;;;11.00;99.90;;;;;;5024098;28;20182;-69
2023/04/30 01:06:15;;;;;;;36.93;20.10;;;11.00;99.90;;;;;;5020379;28;20559;-70
2023/04/30 01:08:41;;;;;;;32.30;19.87;;;11.00;99.90;;;;;;5024515;28;20184;-70
2023/04/30 01:11:30;;;;;;;35.73;20.30;;;11.50;99.90;;;;;;5021192;28;20237;-70
2023/04/30 01:14:17;;;;;;;34.43;18.43;;;11.00;99.90;;;;;;5023591;28;20220;-70
2023/04/30 01:16:58;;;;;;;32.97;17.93;;;10.90;99.90;;;;;;5020722;28;20273;-70
2023/04/30 01:19:44;;;;;;;32.17;17.90;;;10.90;99.90;;;;;;5019974;28;20201;-71
2023/04/30 01:22:24;;;;;;;35.20;18.03;;;10.90;99.90;;;;;;5023767;28;20194;-71
2023/04/30 01:25:02;;;;;;;33.13;18.63;;;10.90;99.90;;;;;;5023626;28;20181;-71
2023/04/30 01:27:39;;;;;;;30.03;17.33;;;10.90;99.90;;;;;;5022455;28;20193;-71
2023/04/30 01:30:06;;;;;;;30.77;17.27;;;9.50;99.90;;;;;;5025279;28;20192;-71
2023/04/30 01:32:31;;;;;;;28.90;17.50;;;10.90;99.90;;;;;;5021942;28;20220;-72
2023/04/30 01:34:57;;;;;;;28.87;17.70;;;10.80;99.90;;;;;;5024150;28;20305;-71
2023/04/30 01:37:47;;;;;;;32.03;17.53;;;10.80;99.90;;;;;;5023492;28;20237;-71
2023/04/30 01:40:34;;;;;;;27.20;16.07;;;10.80;99.90;;;;;;5020475;28;20185;-70
2023/04/30 01:43:15;;;;;;;31.30;17.37;;;10.90;99.90;;;;;;5025119;28;20174;-70
2023/04/30 01:46:07;;;;;;;30.67;16.93;;;10.60;99.90;;;;;;5023821;28;20247;-70
2023/04/30 01:48:33;;;;;;;28.80;17.27;;;;;;;;;;5021238;28;20181;-70
2023/04/30 01:51:15;;;;;;;27.20;16.40;;;10.60;99.90;;;;;;5020681;28;20198;-69
2023/04/30 01:53:42;;;;;;;32.50;17.77;;;10.50;99.90;;;;;;5020559;28;20292;-69
2023/04/30 01:56:26;;;;;;;30.10;16.43;;;10.60;99.90;;;;;;5023607;28;20192;-69
2023/04/30 01:58:52;;;;;;;26.83;16.33;;;;;;;;;;5024740;28;20202;-69
2023/04/30 02:01:44;;;;;;;31.80;17.80;;;10.50;99.90;;;;;;5023938;28;20649;-69
2023/04/30 02:04:10;;;;;;;31.17;17.50;;;10.50;99.90;;;;;;5021607;28;20192;-69
2023/04/30 02:06:35;;;;;;;36.33;17.70;;;10.50;99.90;;;;;;5024673;28;20182;-69
2023/04/30 02:09:04;;;;;;;31.50;19.77;;;10.50;99.90;;;;;;5024219;28;20621;-70
2023/04/30 02:11:29;;;;;;;31.53;17.77;;;10.40;99.90;;;;;;5022258;28;20174;-69
2023/04/30 02:13:55;;;;;;;35.73;18.37;;;10.50;99.90;;;;;;5023687;28;20312;-69
2023/04/30 02:16:20;;;;;;;33.83;18.67;;;10.40;99.90;;;;;;5023924;28;20170;-70
2023/04/30 02:18:47;;;;;;;35.27;20.03;;;10.50;99.90;;;;;;5028592;28;20185;-69
2023/04/30 02:21:13;;;;;;;35.33;17.83;;;10.40;99.90;;;;;;5024059;28;20232;-69
2023/04/30 02:23:39;;;;;;;33.43;17.93;;;10.40;99.90;;;;;;5027221;28;20532;-68
2023/04/30 02:26:05;;;;;;;32.73;18.30;;;10.40;99.90;;;;;;5024240;28;20178;-69
2023/04/30 02:28:30;;;;;;;32.90;18.03;;;10.30;99.90;;;;;;5027756;28;20193;-69
2023/04/30 02:30:56;;;;;;;33.70;18.30;;;;;;;;;;5025513;28;20261;-69
2023/04/30 02:33:22;;;;;;;32.47;17.30;;;10.40;99.90;;;;;;5026402;28;20209;-69
2023/04/30 02:35:47;;;;;;;32.83;16.87;;;10.30;99.90;;;;;;5025923;28;20676;-68
2023/04/30 02:38:13;;;;;;;32.67;17.53;;;10.40;99.90;;;;;;5025163;28;20174;-69
2023/04/30 02:40:40;;;;;;;30.20;17.47;;;10.30;99.90;;;;;;5027144;28;20185;-69
2023/04/30 02:43:06;;;;;;;32.10;17.00;;;10.20;99.90;;;;;;5023889;28;20175;-71
2023/04/30 02:45:31;;;;;;;31.07;17.47;;;10.20;99.90;;;;;;5028116;28;20256;-70
2023/04/30 02:47:57;;;;;;;31.10;17.47;;;10.20;99.90;;;;;;5022761;28;20600;-69
2023/04/30 02:50:23;;;;;;;34.47;17.60;;;10.10;99.90;;;;;;5010085;28;20181;-70
2023/04/30 02:52:48;;;;;;;34.83;19.33;;;10.10;99.90;;;;;;5023789;28;20596;-70
2023/04/30 02:55:14;;;;;;;33.47;18.00;;;10.10;99.90;;;;;;5030912;28;20249;-70
2023/04/30 02:57:40;;;;;;;32.10;18.67;;;10.10;99.90;;;;;;5026432;28;20190;-70
2023/04/30 03:00:06;;;;;;;34.50;19.70;;;9.20;99.90;;;;;;5027418;28;20625;-69
2023/04/30 03:02:32;;;;;;;34.23;19.87;;;10.10;99.90;;;;;;5025283;28;20197;-69
2023/04/30 03:04:57;;;;;;;37.30;18.97;;;9.80;99.90;;;;;;5023808;28;20190;-70
2023/04/30 03:07:23;;;;;;;38.73;19.53;;;10.00;99.90;;;;;;5024659;28;20188;-70
2023/04/30 03:09:49;;;;;;;31.90;18.67;;;9.90;99.90;;;;;;5024486;28;20616;-69
2023/04/30 03:12:14;;;;;;;33.30;18.90;;;10.00;99.90;;;;;;5026739;28;20618;-70
2023/04/30 03:14:40;;;;;;;35.50;18.40;;;10.00;99.90;;;;;;5028802;28;20728;-69
2023/04/30 03:17:06;;;;;;;35.27;19.13;;;9.90;99.90;;;;;;5020746;28;20309;-69
2023/04/30 03:19:32;;;;;;;32.20;17.70;;;9.90;99.90;;;;;;5024162;28;20217;-70
2023/04/30 03:21:57;;;;;;;31.93;18.57;;;9.90;99.90;;;;;;5025609;28;20183;-70
2023/04/30 03:24:24;;;;;;;32.87;19.80;;;9.90;99.90;;;;;;5024656;28;20185;-69
2023/04/30 03:26:50;;;;;;;28.37;17.80;;;9.90;99.90;;;;;;5024707;28;20183;-70
2023/04/30 03:29:16;;;;;;;34.13;19.67;;;9.90;99.90;;;;;;5027213;28;20243;-70
2023/04/30 03:31:41;;;;;;;34.43;19.80;;;9.90;99.90;;;;;;5023083;28;20257;-69
2023/04/30 03:34:07;;;;;;;32.93;18.70;;;9.90;99.90;;;;;;5026039;28;20297;-70
2023/04/30 03:36:33;;;;;;;32.17;18.70;;;9.90;99.90;;;;;;5022737;28;20178;-69
2023/04/30 03:38:59;;;;;;;34.43;20.07;;;9.90;99.90;;;;;;5026149;28;20192;-69
2023/04/30 03:41:25;;;;;;;34.30;18.47;;;10.00;99.90;;;;;;5021393;28;20221;-69
2023/04/30 03:43:51;;;;;;;34.87;18.73;;;;;;;;;;5025246;28;20201;-69
2023/04/30 03:46:17;;;;;;;34.87;20.07;;;9.90;99.90;;;;;;5021384;28;20193;-69
2023/04/30 03:48:43;;;;;;;35.13;19.27;;;10.00;99.90;;;;;;5025098;28;20653;-70
2023/04/30 03:51:09;;;;;;;35.97;19.60;;;9.90;99.90;;;;;;5022724;28;20209;-70
2023/04/30 03:53:35;;;;;;;34.13;18.73;;;10.00;99.90;;;;;;5025294;28;20240;-70
2023/04/30 03:56:02;;;;;;;35.20;18.87;;;10.00;99.90;;;;;;5024303;28;20209;-70
2023/04/30 03:58:28;;;;;;;35.70;19.37;;;10.10;99.90;;;;;;5026544;28;20197;-70
2023/04/30 04:00:54;;;;;;;36.77;18.90;;;10.00;99.90;;;;;;5024798;28;20178;-69
2023/04/30 04:03:20;;;;;;;29.67;18.30;;;10.10;99.90;;;;;;5025261;28;20236;-69
2023/04/30 04:05:46;;;;;;;34.30;19.30;;;10.10;99.90;;;;;;5026259;28;20718;-69
2023/04/30 04:08:12;;;;;;;33.33;18.80;;;10.10;99.90;;;;;;5024492;28;20173;-69
2023/04/30 04:10:39;;;;;;;30.53;18.43;;;10.10;99.90;;;;;;5025945;28;20221;-69
2023/04/30 04:13:05;;;;;;;32.27;18.63;;;10.20;99.90;;;;;;5021913;28;20265;-69
2023/04/30 04:15:32;;;;;;;35.17;18.90;;;10.20;99.90;;;;;;5007725;28;20185;-69
2023/04/30 04:17:57;;;;;;;29.97;17.77;;;10.40;99.90;;;;;;5023666;28;20163;-70
2023/04/30 04:20:23;;;;;;;31.47;17.90;;;10.30;99.90;;;;;;5026200;28;20315;-69
2023/04/30 04:22:49;;;;;;;39.03;18.93;;;10.30;99.90;;;;;;5024019;28;20736;-70
2023/04/30 04:25:16;;;;;;;31.50;18.13;;;;;;;;;;5023277;28;20585;-70
2023/04/30 04:27:42;;;;;;;36.13;19.20;;;10.40;99.90;;;;;;5023947;28;20178;-70
2023/04/30 04:30:08;;;;;;;31.83;18.07;;;10.30;99.90;;;;;;5022282;28;20172;-69
2023/04/30 04:32:40;;;;;;;27.93;17.63;;;10.40;99.90;;;;;;5023939;28;20192;-71
2023/04/30 04:35:06;;;;;;;36.70;19.87;;;10.30;99.90;;;;;;5022231;28;20367;-70
2023/04/30 04:37:33;;;;;;;30.03;17.90;;;10.40;99.90;;;;;;5025291;28;20182;-71
2023/04/30 04:39:59;;;;;;;30.43;18.93;;;10.30;99.90;;;;;;5024322;28;20237;-70
2023/04/30 04:42:25;;;;;;;33.87;18.30;;;10.30;99.90;;;;;;5026071;28;20178;-70
2023/04/30 04:44:51;;;;;;;31.67;19.10;;;10.40;99.90;;;;;;5020361;28;20181;-71
2023/04/30 04:47:18;;;;;;;32.30;18.93;;;10.40;99.90;;;;;;5019258;28;20637;-71
2023/04/30 04:49:44;;;;;;;37.53;19.10;;;10.50;99.90;;;;;;5022920;28;20217;-71
2023/04/30 04:52:09;;;;;;;33.10;19.10;;;10.60;99.90;;;;;;5024736;28;20728;-70
2023/04/30 04:54:35;;;;;;;31.93;19.27;;;10.80;99.90;;;;;;5023131;28;20672;-70
2023/04/30 04:57:01;;;;;;;35.00;20.03;;;10.50;99.90;;;;;;5019166;28;20538;-70
2023/04/30 04:59:27;;;;;;;35.90;19.80;;;10.60;99.90;;;;;;5024003;28;20190;-70
2023/04/30 05:01:53;;;;;;;33.33;20.47;;;10.70;99.90;;;;;;5025657;28;20243;-70
2023/04/30 05:04:19;;;;;;;32.30;20.70;;;10.70;99.90;;;;;;5025157;28;20177;-71
2023/04/30 05:06:45;;;;;;;35.77;20.67;;;10.60;99.90;;;;;;5017203;28;20324;-70
2023/04/30 05:09:10;;;;;;;33.83;18.93;;;10.60;99.90;;;;;;5018808;28;20179;-70
2023/04/30 05:11:37;;;;;;;33.77;19.40;;;10.60;99.90;;;;;;5024493;28;20631;-70
2023/04/30 05:14:02;;;;;;;34.50;20.77;;;10.50;99.90;;;;;;5025946;28;20292;-69
2023/04/30 05:16:28;;;;;;;34.63;20.30;;;10.50;99.90;;;;;;5020639;28;20329;-70
2023/04/30 05:18:53;;;;;;;32.67;20.53;;;10.50;99.90;;;;;;5027266;28;20517;-70
2023/04/30 05:21:19;;;;;;;35.93;20.73;;;10.50;99.90;;;;;;5022085;28;20189;-70
2023/04/30 05:23:45;;;;;;;36.57;21.03;;;10.40;99.90;;;;;;5006028;28;20624;-70
2023/04/30 05:26:11;;;;;;;32.67;20.73;;;;;;;;;;5023238;28;20189;-71
2023/04/30 05:28:37;;;;;;;36.07;20.80;;;10.50;99.90;;;;;;5021573;28;20779;-71
2023/04/30 05:31:03;;;;;;;38.23;21.43;;;10.60;99.90;;;;;;5024647;28;20265;-70
2023/04/30 05:33:28;;;;;;;35.73;21.63;;;10.50;99.90;;;;;;5002897;28;20665;-69
2023/04/30 05:35:54;;;;;;;37.40;22.70;;;;;;;;;;5024902;28;20193;-69
2023/04/30 05:38:20;;;;;;;33.07;21.90;;;10.60;99.90;;;;;;5021120;28;20179;-69
2023/04/30 05:40:46;;;;;;;33.43;20.70;;;;;;;;;;5025089;28;20189;-69
2023/04/30 05:43:11;;;;;;;36.73;21.33;;;10.60;99.90;;;;;;5021599;28;20186;-70
2023/04/30 05:45:37;;;;;;;36.77;22.57;;;10.60;99.90;;;;;;5005756;28;20182;-71
2023/04/30 05:48:03;;;;;;;40.43;22.87;;;10.50;99.90;;;;;;5022931;28;20181;-71
2023/04/30 05:50:28;;;;;;;39.23;22.57;;;10.50;99.90;;;;;;5026317;28;20685;-70
2023/04/30 05:52:54;;;;;;;38.87;23.40;;;10.60;99.90;;;;;;5027094;28;20205;-69
2023/04/30 05:55:20;;;;;;;37.80;22.37;;;10.50;99.90;;;;;;5025812;28;20300;-68
2023/04/30 05:57:45;;;;;;;40.53;23.47;;;10.30;99.90;;;;;;5027270;28;20212;-70
2023/04/30 06:00:11;;;;;;;42.23;23.73;;;10.50;99.90;;;;;;5025554;28;20182;-69
2023/04/30 06:02:37;;;;;;;40.20;23.93;;;10.40;99.90;;;;;;5030767;28;20513;-69
2023/04/30 06:05:03;;;;;;;42.70;23.60;;;10.50;99.90;;;;;;5027542;28;20198;-68
2023/04/30 06:07:28;;;;;;;42.67;24.00;;;10.50;99.90;;;;;;5021828;28;20186;-69
2023/04/30 06:09:54;;;;;;;42.57;25.53;;;10.40;99.90;;;;;;5025594;28;20225;-71
2023/04/30 06:12:20;;;;;;;38.63;23.50;;;10.40;99.90;;;;;;5031713;28;20653;-74
2023/04/30 06:14:45;;;;;;;41.83;23.70;;;9.50;99.90;;;;;;5023633;28;20618;-73
2023/04/30 06:17:12;;;;;;;45.60;25.67;;;10.40;99.90;;;;;;5022931;28;20553;-74
2023/04/30 06:19:38;;;;;;;42.83;25.63;;;10.50;99.90;;;;;;5026622;28;20264;-75
2023/04/30 06:22:04;;;;;;;43.27;25.87;;;10.40;99.90;;;;;;5028307;28;20524;-74
2023/04/30 06:24:29;;;;;;;43.07;25.80;;;10.40;99.90;;;;;;5027349;28;20196;-75
2023/04/30 06:26:55;;;;;;;43.67;26.47;;;10.50;99.90;;;;;;5024470;28;20193;-76
2023/04/30 06:29:23;;;;;;;47.10;26.30;;;10.50;99.90;;;;;;5028475;28;20194;-76
2023/04/30 06:31:49;;;;;;;43.27;25.37;;;10.70;99.90;;;;;;5024942;28;20181;-76
2023/04/30 06:34:15;;;;;;;40.03;25.53;;;10.60;99.90;;;;;;5030745;28;20699;-79
2023/04/30 06:36:41;;;;;;;44.80;26.50;;;10.50;99.90;;;;;;5025382;28;20171;-82
2023/04/30 06:39:06;;;;;;;49.23;26.57;;;10.70;99.90;;;;;;5027669;28;20244;-82
2023/04/30 06:41:32;;;;;;;45.50;25.70;;;10.70;99.90;;;;;;5023702;28;20181;-78
2023/04/30 06:43:57;;;;;;;46.03;25.23;;;10.60;99.90;;;;;;5025567;28;20218;-78
2023/04/30 06:46:23;;;;;;;47.13;26.77;;;10.50;99.90;;;;;;5027053;28;20278;-78
2023/04/30 06:48:49;;;;;;;44.37;25.13;;;10.60;99.90;;;;;;5025701;28;20269;-80
2023/04/30 06:51:14;;;;;;;45.03;26.10;;;10.90;99.90;;;;;;5018576;28;20598;-83
2023/04/30 06:53:40;;;;;;;43.43;26.70;;;10.70;99.90;;;;;;5032969;28;20193;-84
2023/04/30 06:56:06;;;;;;;45.13;24.90;;;10.70;99.90;;;;;;5033616;28;20204;-82
2023/04/30 06:58:31;;;;;;;43.10;25.43;;;10.60;99.90;;;;;;5008130;28;20179;-85
2023/04/30 07:00:57;;;;;;;39.83;24.53;;;10.50;99.90;;;;;;5036385;28;20625;-81
2023/04/30 07:03:23;;;;;;;45.77;25.57;;;10.50;99.90;;;;;;5030581;28;20175;-84
2023/04/30 07:05:50;;;;;;;43.37;25.60;;;10.50;99.90;;;;;;5033045;28;20549;-79
2023/04/30 07:08:16;;;;;;;40.90;25.27;;;10.60;99.90;;;;;;5032903;28;20174;-77
2023/04/30 07:10:42;;;;;;;42.90;26.40;;;10.70;99.90;;;;;;5035281;28;20261;-79
2023/04/30 07:13:07;;;;;;;44.43;26.30;;;10.70;99.90;;;;;;5031663;28;20812;-78
2023/04/30 07:15:33;;;;;;;40.60;25.43;;;10.80;99.90;;;;;;5025602;28;20209;-79
2023/04/30 07:17:59;;;;;;;46.00;26.83;;;10.80;99.90;;;;;;5029278;28;20533;-79
2023/04/30 07:20:25;;;;;;;47.07;26.23;;;10.90;99.90;;;;;;5027773;28;20268;-84
2023/04/30 07:22:51;;;;;;;42.77;26.20;;;11.00;99.90;;;;;;5027142;28;20208;-85
2023/04/30 07:25:17;;;;;;;44.70;27.23;;;11.10;99.90;;;;;;5030496;28;20177;-84
2023/04/30 07:27:43;;;;;;;40.60;25.23;;;11.00;99.90;;;;;;5025083;28;20178;-81
2023/04/30 07:30:09;;;;;;;49.30;27.00;;;11.20;99.90;;;;;;5024291;28;20543;-80
2023/04/30 07:32:36;;;;;;;40.07;25.13;;;11.10;99.90;;;;;;5028153;28;20186;-82
2023/04/30 07:35:01;;;;;;;42.33;25.83;;;11.10;99.90;;;;;;5028335;28;20738;-86
2023/04/30 07:37:27;;;;;;;41.70;26.43;;;11.30;99.90;;;;;;5029577;28;20178;-82
2023/04/30 07:39:53;;;;;;;46.63;26.77;;;11.40;99.90;;;;;;5025669;28;20193;-84
2023/04/30 07:42:19;;;;;;;45.83;26.50;;;11.60;99.90;;;;;;5030270;28;20309;-84
2023/04/30 07:44:45;;;;;;;47.87;28.40;;;11.70;99.90;;;;;;5028599;28;20181;-83
2023/04/30 07:47:10;;;;;;;48.00;28.43;;;11.80;99.90;;;;;;5024087;28;20733;-87
2023/04/30 07:49:36;;;;;;;47.83;28.20;;;11.80;99.90;;;;;;5030167;28;20265;-80
2023/04/30 07:52:02;;;;;;;50.57;29.37;;;11.20;99.90;;;;;;5027389;28;20641;-82
2023/04/30 07:54:28;;;;;;;48.57;29.13;;;;;;;;;;5030106;28;20244;-82
2023/04/30 07:56:54;;;;;;;46.13;29.33;;;11.70;99.90;;;;;;5026767;28;20189;-83
2023/04/30 07:59:23;;;;;;;45.53;29.23;;;11.70;99.90;;;;;;5031227;28;20182;-82
2023/04/30 08:01:51;;;;;;;52.50;30.33;;;11.70;99.90;;;;;;5019277;28;20190;-80
2023/04/30 08:04:17;;;;;;;48.87;28.87;;;11.60;99.90;;;;;;5020502;28;20174;-81
2023/04/30 08:06:43;;;;;;;48.90;29.23;;;11.50;99.90;;;;;;5019914;28;20681;-76
2023/04/30 08:09:08;;;;;;;47.60;29.70;;;11.40;99.90;;;;;;5021613;28;20308;-73
2023/04/30 08:11:34;;;;;;;50.17;30.57;;;11.40;99.90;;;;;;5025152;28;20637;-74
2023/04/30 08:13:59;;;;;;;50.10;28.47;;;11.40;99.90;;;;;;5017135;28;20224;-72
2023/04/30 08:16:25;;;;;;;48.07;30.27;;;11.30;99.90;;;;;;5007135;28;20177;-74
2023/04/30 08:18:51;;;;;;;47.63;30.33;;;11.40;99.90;;;;;;5021486;28;20178;-74
2023/04/30 08:21:17;;;;;;;47.97;29.80;;;11.40;99.90;;;;;;5027403;28;20178;-77
2023/04/30 08:23:43;;;;;;;47.60;29.63;;;11.40;99.90;;;;;;5024504;28;20167;-77
2023/04/30 08:26:08;;;;;;;47.23;28.40;;;11.30;99.90;;;;;;5021037;28;20186;-77
2023/04/30 08:28:34;;;;;;;46.73;28.20;;;11.40;99.90;;;;;;5023612;28;20198;-74
2023/04/30 08:31:00;;;;;;;48.63;28.93;;;11.50;99.90;;;;;;5022090;28;20553;-75
2023/04/30 08:33:25;;;;;;;46.87;29.93;;;11.40;99.90;;;;;;5026901;28;20516;-73
2023/04/30 08:35:51;;;;;;;50.77;30.23;;;11.40;99.90;;;;;;5025657;28;20208;-79
2023/04/30 08:38:17;;;;;;;47.63;29.20;;;11.40;99.90;;;;;;5028874;28;20174;-80
2023/04/30 08:40:47;;;;;;;51.53;30.37;;;11.40;99.90;;;;;;5023098;28;20178;-81
2023/04/30 08:43:14;;;;;;;51.50;31.17;;;11.50;99.90;;;;;;5025774;28;20177;-81
2023/04/30 08:45:40;;;;;;;51.77;31.47;;;11.20;99.90;;;;;;5023173;28;20179;-81
2023/04/30 08:48:13;;;;;;;57.57;33.10;;;11.10;99.90;;;;;;5025848;28;20178;-78
2023/04/30 08:50:39;;;;;;;50.80;31.50;;;11.20;99.90;;;;;;5025454;28;20186;-80
2023/04/30 08:53:07;;;;;;;55.13;31.10;;;11.20;99.90;;;;;;5025983;28;20243;-77
2023/04/30 08:55:33;;;;;;;54.83;31.57;;;11.20;99.90;;;;;;5025523;28;20784;-80
2023/04/30 08:57:59;;;;;;;49.80;31.57;;;11.30;99.90;;;;;;5025405;28;20194;-79
2023/04/30 09:00:26;;;;;;;53.30;31.20;;;11.30;99.90;;;;;;5025619;28;20714;-77
2023/04/30 09:02:52;;;;;;;55.30;31.27;;;11.40;99.90;;;;;;5026123;28;20605;-82
2023/04/30 09:05:17;;;;;;;51.63;30.50;;;11.40;99.90;;;;;;5017212;28;20260;-81
2023/04/30 09:07:45;;;;;;;48.73;31.33;;;11.50;99.90;;;;;;5017495;28;20535;-79
2023/04/30 09:10:19;;;;;;;52.97;31.60;;;11.60;99.90;;;;;;5005111;28;20232;-81
2023/04/30 09:13:12;;;;;;;54.00;32.27;;;11.70;99.90;;;;;;5018765;28;20173;-79
2023/04/30 09:15:44;;;;;;;55.53;31.60;;;11.60;99.90;;;;;;5018158;28;20218;-78
2023/04/30 09:18:18;;;;;;;52.83;31.30;;;11.80;99.90;;;;;;5023747;28;20316;-80
2023/04/30 09:21:13;;;;;;;51.27;31.60;;;11.80;99.90;;;;;;5027695;28;20201;-80
2023/04/30 09:23:56;;;;;;;47.40;29.97;;;12.00;99.90;;;;;;4999135;28;20187;-79
2023/04/30 09:26:35;;;;;;;49.70;31.20;;;12.10;99.90;;;;;;5026198;28;20177;-78
2023/04/30 09:29:06;;;;;;;53.83;30.90;;;11.90;99.90;;;;;;5029649;28;20176;-78
2023/04/30 09:31:36;;;;;;;51.27;31.80;;;12.00;99.90;;;;;;5011877;28;20182;-77
2023/04/30 09:34:02;;;;;;;55.27;32.23;;;12.10;99.90;;;;;;5025064;28;20205;-72
2023/04/30 09:36:28;;;;;;;47.17;29.93;;;12.30;99.90;;;;;;5029256;28;20181;-74
2023/04/30 09:38:55;;;;;;;47.77;29.03;;;12.40;99.90;;;;;;5024980;28;20209;-74
2023/04/30 09:41:29;;;;;;;48.30;30.73;;;12.50;99.90;;;;;;5032676;28;20169;-74
2023/04/30 09:43:56;;;;;;;51.13;30.27;;;12.60;99.90;;;;;;5027940;28;20240;-74
2023/04/30 09:46:32;;;;;;;54.13;30.42;;;12.60;99.90;;;;;;5028625;28;20228;-73
2023/04/30 09:49:00;;;;;;;51.53;29.17;;;12.70;99.90;;;;;;5009764;28;20580;-74
2023/04/30 09:51:26;;;;;;;46.90;30.27;;;12.70;99.90;;;;;;5029347;28;20173;-74
2023/04/30 09:53:53;;;;;;;56.33;30.13;;;12.80;99.90;;;;;;5027738;28;20267;-74
2023/04/30 09:56:28;;;;;;;50.45;29.58;;;13.00;99.90;;;;;;5028000;28;20270;-74
2023/04/30 09:58:55;;;;;;;50.67;29.85;;;13.00;99.90;;;;;;5028305;28;20539;-74
2023/04/30 10:01:26;;;;;;;48.80;29.58;;;12.90;99.90;;;;;;5029602;28;20256;-74
2023/04/30 10:03:52;;;;;;;49.23;28.40;;;13.00;99.90;;;;;;5025967;28;20634;-74
2023/04/30 10:06:20;;;;;;;50.23;30.13;;;12.70;99.90;;;;;;5031709;28;20209;-74
2023/04/30 10:08:49;;;;;;;49.50;28.90;;;12.70;99.90;;;;;;5027512;28;20170;-74
2023/04/30 10:11:20;;;;;;;46.80;27.95;;;12.70;99.90;;;;;;5027421;28;20304;-73
2023/04/30 10:13:54;;;;;;;47.65;27.65;;;12.80;99.90;;;;;;5025461;28;20206;-75
2023/04/30 10:16:20;;;;;;;46.15;26.95;;;12.90;99.90;;;;;;5024800;28;20182;-73
2023/04/30 10:18:50;;;;;;;43.90;27.07;;;12.80;99.90;;;;;;5025323;28;20198;-73
2023/04/30 10:21:20;;;;;;;42.13;24.97;;;12.80;99.90;;;;;;5028785;28;20181;-73
2023/04/30 10:23:47;;;;;;;44.63;26.37;;;12.90;99.90;;;;;;5025140;28;20714;-72
2023/04/30 10:26:15;;;;;;;43.40;25.95;;;12.80;99.90;;;;;;5028173;28;20182;-77
2023/04/30 10:28:41;;;;;;;44.73;27.47;;;12.70;99.90;;;;;;5028500;28;20189;-76
2023/04/30 10:31:11;;;;;;;41.87;24.97;;;12.80;99.90;;;;;;5029722;28;20312;-77
2023/04/30 10:33:48;;;;;;;48.93;28.70;;;12.00;99.90;;;;;;5029407;28;20236;-77
2023/04/30 10:36:27;;;;;;;51.53;29.63;;;12.70;99.90;;;;;;5028123;28;20216;-77
2023/04/30 10:38:53;;;;;;;47.33;27.87;;;12.90;99.90;;;;;;5025245;28;20183;-76
2023/04/30 10:41:19;;;;;;;45.70;26.63;;;13.10;99.90;;;;;;5028551;28;20665;-77
2023/04/30 10:43:47;;;;;;;49.53;28.17;;;12.90;99.90;;;;;;5025910;28;20174;-78
2023/04/30 10:46:22;;;;;;;48.80;27.73;;;12.80;99.90;;;;;;5028328;28;20181;-77
2023/04/30 10:48:48;;;;;;;53.77;28.10;;;12.80;99.90;;;;;;5025134;28;20212;-77
2023/04/30 10:51:14;;;;;;;53.30;28.57;;;12.80;99.90;;;;;;5027442;28;20268;-78
2023/04/30 10:53:41;;;;;;;48.20;27.90;;;12.90;99.90;;;;;;5026314;28;20753;-77
2023/04/30 10:56:07;;;;;;;47.33;28.73;;;13.00;99.90;;;;;;5026346;28;20200;-77
2023/04/30 10:58:40;;;;;;;49.00;29.40;;;13.10;99.90;;;;;;5027559;28;20189;-78
2023/04/30 11:01:11;;;;;;;48.00;28.77;;;13.20;99.90;;;;;;5028211;28;20189;-77
2023/04/30 11:03:39;;;;;;;44.23;26.90;;;13.20;99.90;;;;;;5026882;28;20595;-77
2023/04/30 11:06:11;;;;;;;42.37;24.33;;;13.10;99.90;;;;;;5025709;28;20182;-77
2023/04/30 11:08:38;;;;;;;46.53;26.10;;;13.10;99.90;;;;;;5026988;28;20181;-76
2023/04/30 11:11:07;;;;;;;41.63;23.05;;;13.10;99.90;;;;;;5025253;28;20340;-76
2023/04/30 11:13:47;;;;;;;38.30;22.33;;;13.20;99.90;;;;;;5009583;28;20188;-77
2023/04/30 11:16:15;;;;;;;37.33;20.13;;;13.20;99.90;;;;;;5010506;28;20212;-77
2023/04/30 11:18:44;;;;;;;35.37;21.57;;;13.10;99.90;;;;;;5026306;28;20186;-76
2023/04/30 11:21:11;;;;;;;36.90;21.17;;;13.10;99.90;;;;;;5026207;28;20186;-76
2023/04/30 11:23:42;;;;;;;37.50;22.83;;;13.20;99.90;;;;;;5022463;28;20251;-76
2023/04/30 11:26:07;;;;;;;36.60;22.20;;;13.20;99.90;;;;;;5027963;28;20272;-77
2023/04/30 11:28:34;;;;;;;34.60;20.93;;;;;;;;;;5027131;28;20680;-77
2023/04/30 11:31:00;;;;;;;43.37;23.13;;;13.10;99.90;;;;;;5023855;28;20189;-77
2023/04/30 11:33:28;;;;;;;34.27;20.33;;;13.10;99.90;;;;;;5027681;28;20656;-77
2023/04/30 11:35:58;;;;;;;39.03;22.87;;;12.90;99.90;;;;;;5024016;28;20642;-76
2023/04/30 11:38:29;;;;;;;40.23;23.83;;;12.80;99.90;;;;;;5027992;28;20170;-76
2023/04/30 11:40:59;;;;;;;44.03;24.53;;;12.70;99.90;;;;;;5023418;28;20239;-75
2023/04/30 11:43:29;;;;;;;43.30;25.93;;;12.70;99.90;;;;;;5027523;28;20589;-75
2023/04/30 11:46:11;;;;;;;48.83;25.50;;;12.80;99.90;;;;;;5023332;28;20324;-76
2023/04/30 11:48:38;;;;;;;42.80;25.50;;;12.80;99.90;;;;;;5026569;28;20676;-76
2023/04/30 11:51:11;;;;;;;38.97;24.00;;;12.80;99.90;;;;;;5023663;28;20174;-76
2023/04/30 11:53:38;;;;;;;45.07;24.90;;;12.90;99.90;;;;;;5026405;28;20541;-76
2023/04/30 11:56:05;;;;;;;43.60;24.90;;;12.80;99.90;;;;;;5023965;28;20753;-75
2023/04/30 11:58:38;;;;;;;41.57;24.00;;;12.70;99.90;;;;;;5027037;28;20173;-75
2023/04/30 12:01:06;;;;;;;39.43;24.37;;;12.70;99.90;;;;;;5027410;28;20174;-76
2023/04/30 12:03:40;;;;;;;39.70;23.63;;;12.60;99.90;;;;;;5027204;28;20178;-75
2023/04/30 12:06:05;;;;;;;41.83;24.20;;;12.60;99.90;;;;;;5011461;28;20218;-76
2023/04/30 12:08:31;;;;;;;39.90;24.67;;;12.70;99.90;;;;;;5025901;28;20800;-76
2023/04/30 12:10:57;;;;;;;40.13;23.70;;;12.80;99.90;;;;;;5024979;28;20296;-74
2023/04/30 12:13:22;;;;;;;38.37;24.10;;;12.90;99.90;;;;;;5026709;28;20519;-75
2023/04/30 12:16:01;;;;;;;35.40;23.93;;;12.90;99.90;;;;;;5022826;28;20604;-76
2023/04/30 12:18:27;;;;;;;38.00;23.07;;;12.90;99.90;;;;;;5022738;28;20719;-76
2023/04/30 12:20:53;;;;;;;35.93;24.07;;;13.00;99.90;;;;;;5003981;28;20320;-76
2023/04/30 12:23:19;;;;;;;39.47;23.17;;;13.10;99.90;;;;;;5028836;28;20184;-77
2023/04/30 12:25:46;;;;;;;39.43;23.57;;;13.10;99.90;;;;;;5023802;28;20685;-76
2023/04/30 12:28:12;;;;;;;38.35;24.27;;;13.30;99.90;;;;;;5026585;28;20193;-76
2023/04/30 12:30:38;;;;;;;41.80;24.43;;;13.40;99.90;;;;;;5024550;28;20190;-78
2023/04/30 12:33:04;;;;;;;42.77;23.97;;;13.40;99.90;;;;;;5026625;28;20178;-76